Time;durP1;ratioP1;P1;durP2;ratioP2;P2;SDS_P1;SDS_P2;PMS_P1;PMS_P2;Temp;Humidity;BMP_temperature;BMP_pressure;BME280_temperature;BME280_humidity;BME280_pressure;Samples;Min_cycle;Max_cycle;Signal;HPM_P1;HPM_P2
2021/03/04 00:01:03;;;;;;;;;;;;;;;2.69;79.20;93724.09;1419456;39;20326;31
2021/03/04 00:02:07;;;;;;;;;;;;;;;2.74;78.93;93715.13;1414746;40;20211;31
2021/03/04 00:04:15;;;;;;;;;;;;;;;2.97;77.54;93712.47;1424212;39;22355;31
2021/03/04 00:05:29;;;;;;;;;;;;;;;2.82;78.25;93727.31;1418401;39;20196;31
2021/03/04 00:06:43;;;;;;;;;;;;;;;2.75;77.65;93716.62;1411922;40;21361;31
2021/03/04 00:07:57;;;;;;;;;;;;;;;2.73;78.51;93724.91;1407419;40;21071;31
2021/03/04 00:09:11;;;;;;;;;;;;;;;2.73;78.77;93714.34;1417603;39;20313;31
2021/03/04 00:10:29;;;;;;;;;;;;;;;2.71;78.97;93719.22;1425543;39;20215;31
2021/03/04 00:14:59;;;;;;;;;;;;;;;2.67;79.75;93702.53;1481955;39;20239;31
2021/03/04 00:16:13;;;;;;;;;;;;;;;2.67;79.37;93705.19;1419571;39;20257;31
2021/03/04 00:17:27;;;;;;;;;;;;;;;2.73;78.98;93708.31;1427868;39;21100;31
2021/03/04 00:18:45;;;;;;;;;;;;;;;2.71;79.13;93710.53;1409069;40;20247;31
2021/03/04 00:19:59;;;;;;;;;;;;;;;2.70;78.21;93698.44;1434554;39;20225;31
2021/03/04 00:21:15;;;;;;;;;;;;;;;2.89;77.92;93697.63;1420741;39;20297;31
2021/03/04 00:22:29;;;;;;;;;;;;;;;2.90;77.69;93694.66;1430726;39;21735;31
2021/03/04 00:23:43;;;;;;;;;;;;;;;2.84;77.61;93696.03;1432509;39;20306;31
2021/03/04 00:26:26;;;;;;;;;;;;;;;2.74;77.68;93699.28;1431641;39;20313;31
2021/03/04 00:27:41;;;;;;;;;;;;;;;2.76;78.48;93702.31;1444712;39;20300;31
2021/03/04 00:28:56;;;;;;;;;;;;;;;2.73;78.59;93705.69;1428933;39;20278;31
2021/03/04 00:30:10;;;;;;;;;;;;;;;2.71;78.55;93700.72;1427468;39;20290;31
2021/03/04 00:31:15;;;;;;;;;;;;;;;2.75;78.43;93693.62;1423006;39;22383;31
2021/03/04 00:32:29;;;;;;;;;;;;;;;2.72;78.85;93694.34;1420911;39;20263;31
2021/03/04 00:33:43;;;;;;;;;;;;;;;2.74;77.93;93699.28;1426210;39;21120;31
2021/03/04 00:36:13;;;;;;;;;;;;;;;2.72;78.75;93677.72;1433883;39;20566;31
2021/03/04 00:37:17;;;;;;;;;;;;;;;2.77;79.28;93690.66;1424161;39;20217;31
2021/03/04 00:43:27;;;;;;;;;;;;;;;2.81;79.52;93678.28;1422014;39;20203;31
2021/03/04 00:46:09;;;;;;;;;;;;;;;2.80;80.83;93678.62;1475731;39;20216;31
2021/03/04 00:47:23;;;;;;;;;;;;;;;2.91;80.17;93680.34;1412186;39;21076;31
2021/03/04 00:48:37;;;;;;;;;;;;;;;2.94;80.13;93671.72;1396469;40;20201;31
2021/03/04 00:49:51;;;;;;;;;;;;;;;2.91;80.36;93674.28;1419659;39;21639;31
2021/03/04 00:52:09;;;;;;;;;;;;;;;2.88;79.77;93665.19;1432320;39;21161;31
2021/03/04 00:53:23;;;;;;;;;;;;;;;2.85;80.41;93663.25;1426906;39;21161;31
2021/03/04 00:54:37;;;;;;;;;;;;;;;2.89;79.83;93655.38;1425615;39;20623;31
2021/03/04 00:57:15;;;;;;;;;;;;;;;2.83;79.72;93659.44;1482172;39;20246;31
2021/03/04 00:58:29;;;;;;;;;;;;;;;2.84;79.80;93659.09;1428840;39;21129;31
2021/03/04 00:59:43;;;;;;;;;;;;;;;2.84;79.80;93663.59;1427502;39;21213;31
2021/03/04 01:00:47;;;;;;;;;;;;;;;2.80;79.34;93658.25;1431317;39;22370;31
2021/03/04 01:02:01;;;;;;;;;;;;;;;2.92;78.20;93662.59;1422304;39;20247;31
2021/03/04 01:03:05;;;;;;;;;;;;;;;2.91;78.47;93664.50;1423887;39;21687;31
2021/03/04 01:04:19;;;;;;;;;;;;;;;2.88;79.14;93652.00;1423916;39;21079;31
2021/03/04 01:05:24;;;;;;;;;;;;;;;2.86;79.14;93664.78;1424122;39;22253;31
2021/03/04 01:06:38;;;;;;;;;;;;;;;2.86;80.09;93658.75;1426424;39;20313;31
2021/03/04 01:07:52;;;;;;;;;;;;;;;2.81;79.29;93659.81;1422274;39;21692;31
2021/03/04 01:09:06;;;;;;;;;;;;;;;2.83;79.40;93654.94;1434389;39;20194;31
2021/03/04 01:10:11;;;;;;;;;;;;;;;2.85;79.79;93650.03;1420685;39;20655;31
2021/03/04 01:11:15;;;;;;;;;;;;;;;2.89;79.67;93653.50;1423240;39;20231;31
2021/03/04 01:14:24;;;;;;;;;;;;;;;2.93;79.98;93654.31;1444262;39;22759;31
2021/03/04 01:15:38;;;;;;;;;;;;;;;2.99;80.08;93658.22;1428760;39;20217;31
2021/03/04 01:16:53;;;;;;;;;;;;;;;3.09;79.47;93656.84;1422260;39;20290;31
2021/03/04 01:18:07;;;;;;;;;;;;;;;3.02;78.79;93657.47;1418396;39;20286;31
2021/03/04 01:19:21;;;;;;;;;;;;;;;3.04;78.28;93651.87;1425140;39;20207;31
2021/03/04 01:20:23;;;;;;;;;;;;;;;2.97;78.65;93649.88;1417487;39;22779;31
2021/03/04 01:21:25;;;;;;;;;;;;;;;2.92;79.39;93644.87;1410011;39;20228;31
2021/03/04 01:24:46;;;;;;;;;;;;;;;2.90;80.09;93649.00;1430713;39;20234;31
2021/03/04 01:26:00;;;;;;;;;;;;;;;2.86;79.79;93648.94;1419307;39;22336;31
2021/03/04 01:27:14;;;;;;;;;;;;;;;2.91;79.20;93642.63;1416002;39;20232;31
2021/03/04 01:28:16;;;;;;;;;;;;;;;3.12;78.50;93648.22;1419120;39;21080;31
2021/03/04 01:30:33;;;;;;;;;;;;;;;3.00;78.26;93643.87;1439156;39;20250;31
2021/03/04 01:31:35;;;;;;;;;;;;;;;2.86;78.01;93645.56;1419408;39;22432;31
2021/03/04 01:34:58;;;;;;;;;;;;;;;2.79;78.77;93643.53;1433261;39;20201;31
2021/03/04 01:36:02;;;;;;;;;;;;;;;2.79;78.79;93646.19;1416062;39;22409;31
2021/03/04 01:38:10;;;;;;;;;;;;;;;2.93;78.37;93643.00;1427614;39;20231;31
2021/03/04 01:39:14;;;;;;;;;;;;;;;2.91;78.38;93638.09;1437474;39;22372;31
2021/03/04 01:40:21;;;;;;;;;;;;;;;2.87;78.59;93639.16;1418520;39;22158;31
2021/03/04 01:41:25;;;;;;;;;;;;;;;2.83;77.87;93638.34;1426604;39;20459;31
2021/03/04 01:43:42;;;;;;;;;;;;;;;2.88;78.36;93628.22;1435718;39;20245;31
2021/03/04 01:44:56;;;;;;;;;;;;;;;2.88;77.89;93635.38;1430463;39;20218;31
2021/03/04 01:46:10;;;;;;;;;;;;;;;2.88;78.05;93630.09;1422350;39;22807;31
2021/03/04 01:47:24;;;;;;;;;;;;;;;2.95;77.27;93630.22;1424896;39;21146;31
2021/03/04 01:48:38;;;;;;;;;;;;;;;2.90;77.25;93623.38;1415623;39;20268;31
2021/03/04 01:49:40;;;;;;;;;;;;;;;2.87;77.38;93618.78;1413658;39;20243;31
2021/03/04 01:50:54;;;;;;;;;;;;;;;2.83;78.23;93620.59;1420119;39;20287;31
2021/03/04 01:52:08;;;;;;;;;;;;;;;3.05;77.45;93618.28;1418746;39;20384;31
2021/03/04 01:53:10;;;;;;;;;;;;;;;2.99;77.30;93617.84;1414027;39;22378;31
2021/03/04 01:56:30;;;;;;;;;;;;;;;2.96;77.22;93611.38;1431013;39;21209;31
2021/03/04 01:57:36;;;;;;;;;;;;;;;2.90;78.12;93612.81;1421585;39;20247;31
2021/03/04 01:58:38;;;;;;;;;;;;;;;2.86;77.72;93621.78;1431720;39;21307;31
2021/03/04 01:59:52;;;;;;;;;;;;;;;2.82;78.14;93607.78;1428067;39;20245;31
2021/03/04 02:04:26;;;;;;;;;;;;;;;2.82;79.01;93603.25;1428927;39;21762;31
2021/03/04 02:05:40;;;;;;;;;;;;;;;2.81;78.34;93604.38;1428291;39;21582;31
2021/03/04 02:06:54;;;;;;;;;;;;;;;2.82;78.94;93608.53;1420766;39;21151;31
2021/03/04 02:08:01;;;;;;;;;;;;;;;2.80;78.82;93605.47;1411850;40;20283;31
2021/03/04 02:09:09;;;;;;;;;;;;;;;2.79;79.33;93601.31;1421749;39;20264;31
2021/03/04 02:10:23;;;;;;;;;;;;;;;2.76;78.44;93597.50;1408850;40;20314;31
2021/03/04 02:11:29;;;;;;;;;;;;;;;2.79;78.79;93593.41;1419139;39;21117;31
2021/03/04 02:12:46;;;;;;;;;;;;;;;2.79;78.34;93593.41;1414401;39;20211;31
2021/03/04 02:14:00;;;;;;;;;;;;;;;2.82;78.43;93599.84;1419771;39;45613;31
2021/03/04 02:15:07;;;;;;;;;;;;;;;2.85;78.45;93596.50;1415161;39;20336;31
2021/03/04 02:16:21;;;;;;;;;;;;;;;2.80;78.39;93594.16;1407802;40;21241;31
2021/03/04 02:17:35;;;;;;;;;;;;;;;2.81;78.99;93596.47;1416414;39;21245;31
2021/03/04 02:18:49;;;;;;;;;;;;;;;2.80;78.88;93591.50;1419441;39;20282;31
2021/03/04 02:20:03;;;;;;;;;;;;;;;2.79;78.17;93590.75;1417899;39;20231;31
2021/03/04 02:21:17;;;;;;;;;;;;;;;2.81;78.02;93575.34;1413231;39;20254;31
2021/03/04 02:22:25;;;;;;;;;;;;;;;2.85;78.29;93591.97;1420727;39;22739;31
2021/03/04 02:24:35;;;;;;;;;;;;;;;3.00;77.78;93585.03;1426892;39;21842;31
2021/03/04 02:25:49;;;;;;;;;;;;;;;3.01;77.91;93581.28;1419025;39;21272;31
2021/03/04 02:27:03;;;;;;;;;;;;;;;2.98;77.48;93580.09;1413931;40;21193;31
2021/03/04 02:28:06;;;;;;;;;;;;;;;3.04;77.17;93572.66;1415215;39;22404;31
2021/03/04 02:29:20;;;;;;;;;;;;;;;3.00;78.11;93571.84;1433851;39;20329;31
2021/03/04 02:30:34;;;;;;;;;;;;;;;2.95;77.97;93580.06;1420540;39;20230;31
2021/03/04 02:31:39;;;;;;;;;;;;;;;3.09;77.85;93582.91;1421201;39;20581;31
2021/03/04 02:32:53;;;;;;;;;;;;;;;3.00;78.08;93582.41;1418038;39;20240;31
2021/03/04 02:34:07;;;;;;;;;;;;;;;2.97;77.95;93577.81;1431852;39;21251;31
2021/03/04 02:35:21;;;;;;;;;;;;;;;2.93;78.51;93580.41;1418782;39;20655;31
2021/03/04 02:36:35;;;;;;;;;;;;;;;3.18;77.35;93580.75;1424286;39;20251;31
2021/03/04 02:37:44;;;;;;;;;;;;;;;3.00;78.02;93564.66;1431443;39;21163;31
2021/03/04 02:38:49;;;;;;;;;;;;;;;2.90;77.79;93578.50;1427320;39;21233;31
2021/03/04 02:40:03;;;;;;;;;;;;;;;2.89;78.30;93571.66;1415971;39;20542;31
2021/03/04 02:41:07;;;;;;;;;;;;;;;2.87;78.32;93565.22;1420666;39;21165;31
2021/03/04 02:42:21;;;;;;;;;;;;;;;2.84;78.42;93574.63;1426597;39;20321;31
2021/03/04 02:43:26;;;;;;;;;;;;;;;2.81;78.86;93577.19;1421597;39;21209;31
2021/03/04 02:44:40;;;;;;;;;;;;;;;2.79;78.87;93569.63;1419280;39;21387;31
2021/03/04 02:45:45;;;;;;;;;;;;;;;2.89;78.50;93563.75;1415856;39;20586;31
2021/03/04 02:51:12;;;;;;;;;;;;;;;2.79;79.52;93561.72;1416444;39;20275;31
2021/03/04 02:52:17;;;;;;;;;;;;;;;2.81;79.01;93559.50;1421139;39;21189;31
2021/03/04 02:53:22;;;;;;;;;;;;;;;2.80;78.71;93551.91;1420871;39;22375;31
2021/03/04 02:55:39;;;;;;;;;;;;;;;2.88;78.68;93559.59;1421879;39;20223;31
2021/03/04 02:56:53;;;;;;;;;;;;;;;2.97;77.38;93552.16;1405845;40;20193;31
2021/03/04 02:58:07;;;;;;;;;;;;;;;2.87;78.01;93542.22;1420799;39;20225;31
2021/03/04 02:59:21;;;;;;;;;;;;;;;2.81;78.25;93546.31;1417341;39;20203;31
2021/03/04 03:00:35;;;;;;;;;;;;;;;2.80;78.58;93544.75;1414397;39;20215;31
2021/03/04 03:01:49;;;;;;;;;;;;;;;2.75;78.82;93545.06;1409317;39;20207;31
2021/03/04 03:03:03;;;;;;;;;;;;;;;2.67;79.06;93538.91;1435511;39;21105;31
2021/03/04 03:04:17;;;;;;;;;;;;;;;2.65;78.96;93543.78;1432365;39;20265;31
2021/03/04 03:05:21;;;;;;;;;;;;;;;2.63;79.70;93539.97;1427955;39;22445;31
2021/03/04 03:10:12;;;;;;;;;;;;;;;2.64;79.58;93544.91;1427169;39;21248;31
2021/03/04 03:11:17;;;;;;;;;;;;;;;2.70;79.60;93542.72;1413200;40;20426;31
2021/03/04 03:12:22;;;;;;;;;;;;;;;2.63;80.10;93542.63;1421375;39;20215;31
2021/03/04 03:13:30;;;;;;;;;;;;;;;2.63;80.32;93546.00;1414858;39;20677;31
2021/03/04 03:15:37;;;;;;;;;;;;;;;2.59;80.19;93537.31;1432010;39;21070;31
2021/03/04 03:16:51;;;;;;;;;;;;;;;2.57;80.06;93531.59;1431217;39;20258;31
2021/03/04 03:18:05;;;;;;;;;;;;;;;2.53;79.52;93542.09;1418276;39;21423;31
2021/03/04 03:19:09;;;;;;;;;;;;;;;2.53;80.13;93536.81;1435311;39;22222;31
2021/03/04 03:20:23;;;;;;;;;;;;;;;2.61;79.49;93535.06;1423664;39;20502;31
2021/03/04 03:21:37;;;;;;;;;;;;;;;2.57;79.36;93533.50;1418443;39;20666;31
2021/03/04 03:22:51;;;;;;;;;;;;;;;2.51;79.65;93533.03;1416844;39;21715;31
2021/03/04 03:24:05;;;;;;;;;;;;;;;2.49;80.04;93527.34;1412145;39;21157;31
2021/03/04 03:25:10;;;;;;;;;;;;;;;2.48;79.32;93537.13;1414984;39;20306;31
2021/03/04 03:27:17;;;;;;;;;;;;;;;2.50;79.79;93532.28;1413403;40;21146;31
2021/03/04 03:28:21;;;;;;;;;;;;;;;2.51;79.54;93528.53;1427323;39;22559;31
2021/03/04 03:29:26;;;;;;;;;;;;;;;2.50;79.35;93532.28;1419981;39;20312;31
2021/03/04 03:30:40;;;;;;;;;;;;;;;2.72;79.23;93529.94;1415610;39;20262;31
2021/03/04 03:31:54;;;;;;;;;;;;;;;2.66;78.84;93531.38;1415966;40;20256;31
2021/03/04 03:33:08;;;;;;;;;;;;;;;2.58;80.08;93527.84;1416878;39;20236;31
2021/03/04 03:34:22;;;;;;;;;;;;;;;2.56;79.60;93527.47;1418387;39;20219;31
2021/03/04 03:35:36;;;;;;;;;;;;;;;2.52;80.21;93522.13;1429168;39;22266;31
2021/03/04 03:36:50;;;;;;;;;;;;;;;2.53;80.28;93533.44;1418816;39;21126;31
2021/03/04 03:37:58;;;;;;;;;;;;;;;2.50;80.73;93524.38;1416155;39;20269;31
2021/03/04 03:39:12;;;;;;;;;;;;;;;2.49;81.55;93528.09;1416948;39;20234;31
2021/03/04 03:43:35;;;;;;;;;;;;;;;2.45;81.39;93524.63;1422185;39;20234;31
2021/03/04 03:44:46;;;;;;;;;;;;;;;2.45;81.57;93529.16;1408549;40;20247;31
2021/03/04 03:47:05;;;;;;;;;;;;;;;2.45;81.21;93514.09;1421287;39;20331;31
2021/03/04 03:48:20;;;;;;;;;;;;;;;2.48;81.82;93529.22;1420914;39;20293;31
2021/03/04 03:49:34;;;;;;;;;;;;;;;2.44;82.44;93520.50;1411006;39;20254;31
2021/03/04 03:50:48;;;;;;;;;;;;;;;2.45;82.49;93511.44;1419916;39;20542;31
2021/03/04 03:51:53;;;;;;;;;;;;;;;2.62;83.10;93515.47;1425897;39;22379;31
2021/03/04 03:54:12;;;;;;;;;;;;;;;2.55;83.06;93509.31;1413855;39;20255;31
2021/03/04 03:55:26;;;;;;;;;;;;;;;2.45;82.68;93511.44;1422978;39;20230;31
2021/03/04 03:56:40;;;;;;;;;;;;;;;2.47;83.26;93517.16;1423807;39;20223;31
2021/03/04 03:57:54;;;;;;;;;;;;;;;2.44;83.32;93512.56;1433759;39;20486;31
2021/03/04 03:58:58;;;;;;;;;;;;;;;2.42;84.07;93508.78;1431365;39;22448;31
2021/03/04 04:01:26;;;;;;;;;;;;;;;2.38;83.88;93513.25;1426619;39;20258;31
2021/03/04 04:02:40;;;;;;;;;;;;;;;2.42;83.71;93511.41;1434512;39;20214;31
2021/03/04 04:03:54;;;;;;;;;;;;;;;2.42;84.04;93514.81;1432137;39;20203;31
2021/03/04 04:05:08;;;;;;;;;;;;;;;2.40;83.59;93511.75;1432574;39;20222;31
2021/03/04 04:06:22;;;;;;;;;;;;;;;2.38;82.95;93508.72;1428509;39;21428;31
2021/03/04 04:07:36;;;;;;;;;;;;;;;2.41;83.58;93504.59;1425769;39;21263;31
2021/03/04 04:08:41;;;;;;;;;;;;;;;2.45;82.43;93510.69;1424785;39;22152;31
2021/03/04 04:13:33;;;;;;;;;;;;;;;2.44;82.29;93503.91;1482142;39;20223;31
2021/03/04 04:14:47;;;;;;;;;;;;;;;2.45;81.89;93511.44;1427427;39;21250;31
2021/03/04 04:16:01;;;;;;;;;;;;;;;2.44;82.09;93504.66;1431119;39;22264;31
2021/03/04 04:17:15;;;;;;;;;;;;;;;2.42;83.20;93504.25;1428270;39;22431;31
2021/03/04 04:18:29;;;;;;;;;;;;;;;2.57;81.96;93499.94;1421162;39;21157;31
2021/03/04 04:19:43;;;;;;;;;;;;;;;2.45;82.24;93506.16;1426478;39;20555;31
2021/03/04 04:22:21;;;;;;;;;;;;;;;2.43;83.17;93502.38;1486666;39;20186;31
2021/03/04 04:23:36;;;;;;;;;;;;;;;2.38;83.60;93500.81;1419806;39;22842;31
2021/03/04 04:24:50;;;;;;;;;;;;;;;2.40;83.98;93495.16;1430236;39;20252;31
2021/03/04 04:25:54;;;;;;;;;;;;;;;2.51;82.55;93504.78;1422823;39;20315;31
2021/03/04 04:27:08;;;;;;;;;;;;;;;2.57;83.00;93499.19;1411951;39;20266;31
2021/03/04 04:28:22;;;;;;;;;;;;;;;2.49;83.24;93496.44;1427581;39;21226;31
2021/03/04 04:29:37;;;;;;;;;;;;;;;2.51;82.77;93488.94;1427194;39;20227;31
2021/03/04 04:30:51;;;;;;;;;;;;;;;2.48;83.66;93494.16;1415890;39;20561;31
2021/03/04 04:32:05;;;;;;;;;;;;;;;2.46;82.78;93494.53;1425124;39;20505;31
2021/03/04 04:33:20;;;;;;;;;;;;;;;2.43;82.97;93497.88;1427352;39;20227;31
2021/03/04 04:34:34;;;;;;;;;;;;;;;2.37;83.02;93503.78;1435349;39;20230;31
2021/03/04 04:35:48;;;;;;;;;;;;;;;2.49;82.62;93493.78;1431117;39;21067;31
2021/03/04 04:37:02;;;;;;;;;;;;;;;2.43;82.83;93503.12;1417541;39;20227;31
2021/03/04 04:38:16;;;;;;;;;;;;;;;2.36;83.67;93497.75;1431363;39;20249;31
2021/03/04 04:39:30;;;;;;;;;;;;;;;2.42;83.11;93498.22;1423353;39;20248;31
2021/03/04 04:42:05;;;;;;;;;;;;;;;2.35;83.72;93496.22;1426687;39;20247;31
2021/03/04 04:43:19;;;;;;;;;;;;;;;2.32;83.40;93496.16;1414773;39;20305;31
2021/03/04 04:44:23;;;;;;;;;;;;;;;2.33;83.17;93493.19;1421488;39;20203;31
2021/03/04 04:45:37;;;;;;;;;;;;;;;2.42;83.00;93495.59;1425638;39;20214;31
2021/03/04 04:46:52;;;;;;;;;;;;;;;2.34;83.30;93494.72;1418117;39;22351;31
2021/03/04 04:48:06;;;;;;;;;;;;;;;2.30;83.75;93491.25;1416210;39;21638;31
2021/03/04 04:52:08;;;;;;;;;;;;;;;2.33;83.80;93482.66;1481945;39;20204;31
2021/03/04 04:53:22;;;;;;;;;;;;;;;2.28;83.90;93490.84;1421422;39;22917;31
2021/03/04 04:54:36;;;;;;;;;;;;;;;2.25;83.82;93492.31;1422939;39;21216;31
2021/03/04 04:55:40;;;;;;;;;;;;;;;2.19;83.91;93491.06;1427742;39;20525;31
2021/03/04 04:56:54;;;;;;;;;;;;;;;2.17;84.65;93488.03;1422812;39;21258;31
2021/03/04 04:58:08;;;;;;;;;;;;;;;2.17;84.34;93480.12;1422535;39;21093;31
2021/03/04 05:00:50;;;;;;;;;;;;;;;2.12;84.63;93487.59;1422019;39;20237;31
2021/03/04 05:02:04;;;;;;;;;;;;;;;2.17;84.73;93487.28;1419097;39;20243;31
2021/03/04 05:03:18;;;;;;;;;;;;;;;2.14;83.95;93490.63;1421250;39;21154;31
2021/03/04 05:04:32;;;;;;;;;;;;;;;2.10;84.51;93482.66;1417855;39;20343;31
2021/03/04 05:05:46;;;;;;;;;;;;;;;2.09;84.04;93485.66;1405890;40;20225;31
2021/03/04 05:07:00;;;;;;;;;;;;;;;2.08;84.54;93479.63;1420811;39;20247;31
2021/03/04 05:08:14;;;;;;;;;;;;;;;2.11;84.12;93481.56;1431068;39;20223;31
2021/03/04 05:09:28;;;;;;;;;;;;;;;2.05;85.25;93485.59;1429254;39;20226;31
2021/03/04 05:10:42;;;;;;;;;;;;;;;2.06;84.49;93481.06;1421989;39;20448;31
2021/03/04 05:11:56;;;;;;;;;;;;;;;2.04;84.88;93486.69;1424365;39;20210;31
2021/03/04 05:13:03;;;;;;;;;;;;;;;2.03;83.95;93482.56;1426892;39;21234;31
2021/03/04 05:14:08;;;;;;;;;;;;;;;2.03;84.26;93479.16;1426454;39;20219;31
2021/03/04 05:15:22;;;;;;;;;;;;;;;2.02;84.84;93478.41;1428134;39;20195;31
2021/03/04 05:16:29;;;;;;;;;;;;;;;2.04;84.96;93480.66;1421114;39;20243;31
2021/03/04 05:18:46;;;;;;;;;;;;;;;2.09;84.90;93477.75;1421277;39;20235;31
2021/03/04 05:19:48;;;;;;;;;;;;;;;2.07;84.91;93482.63;1418331;39;22409;31
2021/03/04 05:20:52;;;;;;;;;;;;;;;2.06;84.55;93481.81;1426246;39;20323;31
2021/03/04 05:22:06;;;;;;;;;;;;;;;2.04;85.19;93484.06;1425026;39;20647;31
2021/03/04 05:23:11;;;;;;;;;;;;;;;1.99;84.85;93479.84;1433468;39;20480;31
2021/03/04 05:24:30;;;;;;;;;;;;;;;2.02;84.76;93478.41;1421098;39;20234;31
2021/03/04 05:25:44;;;;;;;;;;;;;;;2.02;84.51;93475.75;1421796;39;20231;31
2021/03/04 05:26:58;;;;;;;;;;;;;;;2.04;84.83;93476.16;1426199;39;20215;31
2021/03/04 05:28:03;;;;;;;;;;;;;;;2.03;85.07;93479.91;1424218;39;20215;31
2021/03/04 05:29:17;;;;;;;;;;;;;;;2.11;84.97;93478.13;1409102;40;21177;31
2021/03/04 05:30:31;;;;;;;;;;;;;;;2.24;83.71;93467.06;1421928;39;21638;31
2021/03/04 05:31:45;;;;;;;;;;;;;;;2.13;83.22;93470.66;1423715;39;20223;31
2021/03/04 05:32:59;;;;;;;;;;;;;;;2.09;83.60;93470.59;1412533;39;20250;31
2021/03/04 05:34:13;;;;;;;;;;;;;;;2.05;83.51;93471.66;1414506;39;21346;31
2021/03/04 05:35:24;;;;;;;;;;;;;;;2.05;84.14;93464.50;1397169;40;20205;31
2021/03/04 05:36:38;;;;;;;;;;;;;;;2.03;83.35;93466.72;1414248;39;20225;31
2021/03/04 05:37:52;;;;;;;;;;;;;;;2.05;82.79;93461.84;1408385;39;20594;31
2021/03/04 05:39:06;;;;;;;;;;;;;;;2.05;82.74;93461.09;1407947;39;20259;31
2021/03/04 05:40:20;;;;;;;;;;;;;;;2.09;82.40;93460.03;1352171;39;20206;31
2021/03/04 05:41:34;;;;;;;;;;;;;;;2.08;81.97;93455.88;1416912;39;20268;31
2021/03/04 05:42:42;;;;;;;;;;;;;;;2.05;82.16;93461.84;1421785;39;20247;31
2021/03/04 05:43:56;;;;;;;;;;;;;;;2.04;81.62;93460.34;1420544;39;20609;31
2021/03/04 05:45:10;;;;;;;;;;;;;;;2.06;81.56;93452.06;1406754;40;20299;31
2021/03/04 05:46:24;;;;;;;;;;;;;;;2.05;81.39;93446.03;1406415;40;20370;31
2021/03/04 05:47:38;;;;;;;;;;;;;;;2.08;81.76;93455.13;1412964;39;20240;31
2021/03/04 05:48:52;;;;;;;;;;;;;;;2.07;81.45;93446.47;1407825;39;20361;31
2021/03/04 05:50:10;;;;;;;;;;;;;;;2.08;82.36;93447.97;1407341;39;20216;31
2021/03/04 05:52:27;;;;;;;;;;;;;;;2.11;82.03;93442.00;1411445;40;20240;31
2021/03/04 05:53:41;;;;;;;;;;;;;;;2.10;82.33;93439.69;1420906;39;20323;31
2021/03/04 05:54:55;;;;;;;;;;;;;;;2.09;81.74;93443.47;1419087;39;21315;31
2021/03/04 05:56:10;;;;;;;;;;;;;;;2.06;82.23;93442.28;1421403;39;20246;31
2021/03/04 05:57:22;;;;;;;;;;;;;;;2.05;82.24;93443.41;1419020;39;20340;31
2021/03/04 05:58:27;;;;;;;;;;;;;;;2.09;81.62;93448.72;1418246;39;21401;31
2021/03/04 06:00:44;;;;;;;;;;;;;;;2.07;81.36;93441.19;1422816;39;21166;31
2021/03/04 06:01:58;;;;;;;;;;;;;;;2.09;81.81;93436.31;1424098;39;21148;31
2021/03/04 06:03:12;;;;;;;;;;;;;;;2.13;82.00;93434.50;1416176;39;21329;31
2021/03/04 06:04:16;;;;;;;;;;;;;;;2.15;81.24;93436.75;1415065;39;20215;31
2021/03/04 06:05:20;;;;;;;;;;;;;;;2.16;81.63;93435.66;1412692;39;22423;31
2021/03/04 06:06:34;;;;;;;;;;;;;;;2.11;81.28;93435.94;1425556;39;20238;31
2021/03/04 06:07:48;;;;;;;;;;;;;;;2.13;82.68;93441.62;1424047;39;20246;31
2021/03/04 06:09:02;;;;;;;;;;;;;;;2.07;81.57;93435.16;1425015;39;21395;31
2021/03/04 06:11:44;;;;;;;;;;;;;;;2.09;82.01;93430.28;1307543;39;21208;31
2021/03/04 06:12:58;;;;;;;;;;;;;;;2.06;82.21;93430.97;1425224;39;21335;31
2021/03/04 06:14:12;;;;;;;;;;;;;;;2.06;81.82;93426.47;1434770;39;20186;31
2021/03/04 06:15:26;;;;;;;;;;;;;;;2.10;82.75;93431.78;1413213;39;21287;31
2021/03/04 06:16:40;;;;;;;;;;;;;;;2.07;82.98;93433.28;1414710;39;21235;31
2021/03/04 06:17:54;;;;;;;;;;;;;;;2.07;82.82;93443.06;1414228;39;20388;31
2021/03/04 06:20:34;;;;;;;;;;;;;;;2.05;82.72;93435.50;1492805;39;20183;31
2021/03/04 06:21:48;;;;;;;;;;;;;;;2.07;82.83;93427.25;1421047;39;21064;31
2021/03/04 06:24:20;;;;;;;;;;;;;;;2.14;82.76;93425.47;1427274;39;20231;31
2021/03/04 06:25:24;;;;;;;;;;;;;;;2.14;83.18;93429.97;1418853;39;20399;31
2021/03/04 06:26:38;;;;;;;;;;;;;;;2.13;83.32;93425.81;1416352;39;20275;31
2021/03/04 06:27:53;;;;;;;;;;;;;;;2.13;82.94;93428.47;1419246;39;20344;31
2021/03/04 06:29:07;;;;;;;;;;;;;;;2.09;82.86;93438.94;1429039;39;20227;31
2021/03/04 06:30:21;;;;;;;;;;;;;;;2.13;83.31;93428.47;1413373;40;20285;31
2021/03/04 06:31:26;;;;;;;;;;;;;;;2.16;82.34;93433.03;1420202;39;22762;31
2021/03/04 06:32:45;;;;;;;;;;;;;;;2.16;82.72;93425.88;1420968;39;20247;31
2021/03/04 06:35:38;;;;;;;;;;;;;;;2.22;82.81;93431.59;1422500;39;21243;31
2021/03/04 06:38:18;;;;;;;;;;;;;;;2.21;82.85;93440.63;1482239;39;20239;31
2021/03/04 06:39:33;;;;;;;;;;;;;;;2.23;83.14;93438.41;1419801;39;21170;31
2021/03/04 06:40:49;;;;;;;;;;;;;;;2.21;82.82;93433.47;1420491;39;22458;31
2021/03/04 06:42:03;;;;;;;;;;;;;;;2.23;83.06;93435.75;1418566;39;20216;31
2021/03/04 06:43:17;;;;;;;;;;;;;;;2.22;83.16;93436.88;1416311;39;20184;31
2021/03/04 06:44:31;;;;;;;;;;;;;;;2.19;82.27;93435.69;1417479;39;20234;31
2021/03/04 06:45:46;;;;;;;;;;;;;;;2.17;83.71;93443.22;1433605;39;20227;31
2021/03/04 06:47:01;;;;;;;;;;;;;;;2.29;82.71;93441.50;1431101;39;20210;31
2021/03/04 06:48:17;;;;;;;;;;;;;;;2.26;82.95;93440.34;1430078;39;21122;31
2021/03/04 06:49:31;;;;;;;;;;;;;;;2.21;83.02;93444.03;1426129;39;20234;31
2021/03/04 06:50:45;;;;;;;;;;;;;;;2.25;83.12;93447.50;1422244;39;21356;31
2021/03/04 06:51:49;;;;;;;;;;;;;;;2.20;82.53;93444.41;1413147;39;20267;31
2021/03/04 06:53:03;;;;;;;;;;;;;;;2.22;82.89;93437.63;1419840;39;20267;31
2021/03/04 06:54:17;;;;;;;;;;;;;;;2.20;83.96;93439.13;1421842;39;20247;31
2021/03/04 06:55:21;;;;;;;;;;;;;;;2.28;83.05;93440.72;1417163;39;22658;31
2021/03/04 06:56:35;;;;;;;;;;;;;;;2.21;84.12;93441.41;1433386;39;20526;31
2021/03/04 06:57:49;;;;;;;;;;;;;;;2.19;83.79;93437.56;1428299;39;20238;31
2021/03/04 06:59:03;;;;;;;;;;;;;;;2.16;83.17;93435.66;1424054;39;20216;31
2021/03/04 07:00:18;;;;;;;;;;;;;;;2.22;83.86;93444.78;1427676;39;21286;31
2021/03/04 07:01:32;;;;;;;;;;;;;;;2.27;83.86;93436.56;1413932;39;20247;31
2021/03/04 07:02:46;;;;;;;;;;;;;;;2.28;83.59;93432.81;1419538;39;20343;31
2021/03/04 07:07:10;;;;;;;;;;;;;;;2.33;81.31;93434.38;1429741;39;22851;31
2021/03/04 07:08:24;;;;;;;;;;;;;;;2.37;81.73;93440.47;1429050;39;21186;31
2021/03/04 07:10:52;;;;;;;;;;;;;;;2.46;82.31;93433.84;1479745;39;20253;31
2021/03/04 07:12:06;;;;;;;;;;;;;;;2.51;81.46;93430.91;1410875;39;20200;31
2021/03/04 07:14:45;;;;;;;;;;;;;;;2.64;80.61;93425.41;1484424;39;20184;31
2021/03/04 07:17:14;;;;;;;;;;;;;;;2.65;81.53;93432.19;1482988;39;20191;31
2021/03/04 07:21:57;;;;;;;;;;;;;;;2.90;80.17;93427.25;1421036;39;20360;31
2021/03/04 07:23:11;;;;;;;;;;;;;;;2.89;80.76;93425.69;1412885;40;20215;31
2021/03/04 07:24:26;;;;;;;;;;;;;;;3.06;79.45;93432.31;1413406;40;21371;31
2021/03/04 07:27:12;;;;;;;;;;;;;;;3.02;80.37;93433.03;1414089;39;20193;31
2021/03/04 07:32:42;;;;;;;;;;;;;;;3.17;80.37;93428.69;1422478;39;21129;31
2021/03/04 07:33:56;;;;;;;;;;;;;;;3.20;80.19;93435.12;1416404;40;20201;31
2021/03/04 07:35:00;;;;;;;;;;;;;;;3.19;80.25;93430.97;1428844;39;20249;31
2021/03/04 07:41:42;;;;;;;;;;;;;;;3.46;78.31;93423.69;1427549;39;20239;31
2021/03/04 07:42:56;;;;;;;;;;;;;;;3.51;78.35;93420.72;1419712;39;20348;31
2021/03/04 07:45:38;;;;;;;;;;;;;;;3.65;77.44;93420.12;1423559;39;22556;31
2021/03/04 07:46:52;;;;;;;;;;;;;;;3.68;77.19;93412.19;1432501;39;21300;31
2021/03/04 07:48:06;;;;;;;;;;;;;;;3.74;77.54;93420.56;1420784;39;20253;31
2021/03/04 07:49:20;;;;;;;;;;;;;;;3.85;77.13;93415.37;1426256;39;21078;31
2021/03/04 07:50:34;;;;;;;;;;;;;;;3.88;77.18;93414.66;1427063;39;20195;31
2021/03/04 07:51:48;;;;;;;;;;;;;;;3.94;77.45;93406.00;1426938;39;20645;31
2021/03/04 07:53:02;;;;;;;;;;;;;;;4.17;75.00;93412.97;1422844;39;20209;31
2021/03/04 07:54:16;;;;;;;;;;;;;;;4.15;76.17;93407.28;1430339;39;21241;31
2021/03/04 07:55:30;;;;;;;;;;;;;;;4.24;74.95;93410.38;1428829;39;20291;31
2021/03/04 07:56:44;;;;;;;;;;;;;;;4.24;75.80;93411.12;1425631;39;20211;31
2021/03/04 07:57:59;;;;;;;;;;;;;;;4.24;75.94;93402.44;1421786;39;21179;31
2021/03/04 07:59:13;;;;;;;;;;;;;;;4.37;75.10;93408.94;1429795;39;20242;31